Time;durP1;ratioP1;P1;durP2;ratioP2;P2;SDS_P1;SDS_P2;PMS_P1;PMS_P2;Temp;Humidity;BMP_temperature;BMP_pressure;BME280_temperature;BME280_humidity;BME280_pressure;Samples;Min_cycle;Max_cycle;Signal;HPM_P1;HPM_P2
2024/03/10 00:00:41;;;;;;;14.88;10.77;;;9.70;74.20;;;;;;5091170;28;20068;-38
2024/03/10 00:03:08;;;;;;;17.95;12.07;;;9.60;74.10;;;;;;5089857;28;20472;-37
2024/03/10 00:05:35;;;;;;;17.00;11.38;;;9.70;74.10;;;;;;5091479;28;20062;-39
2024/03/10 00:08:01;;;;;;;15.45;10.75;;;9.60;74.00;;;;;;5091097;28;20039;-36
2024/03/10 00:10:28;;;;;;;15.38;10.55;;;9.60;74.10;;;;;;5091053;28;20023;-38
2024/03/10 00:12:54;;;;;;;14.43;10.13;;;9.60;74.20;;;;;;5091102;28;20043;-37
2024/03/10 00:15:20;;;;;;;15.57;10.85;;;9.60;74.40;;;;;;5091051;28;20549;-38
2024/03/10 00:17:46;;;;;;;15.95;11.20;;;9.60;74.30;;;;;;5093419;28;20381;-36
2024/03/10 00:20:13;;;;;;;15.25;10.48;;;9.60;74.40;;;;;;5095039;28;20012;-38
2024/03/10 00:22:39;;;;;;;17.05;10.48;;;9.60;74.30;;;;;;5094980;28;20034;-38
2024/03/10 00:25:06;;;;;;;15.10;10.95;;;9.50;74.30;;;;;;5095235;28;20468;-37
2024/03/10 00:27:32;;;;;;;14.43;10.18;;;9.50;74.30;;;;;;5094793;28;20468;-38
2024/03/10 00:29:58;;;;;;;15.65;10.15;;;9.50;74.30;;;;;;5094974;28;20028;-35
2024/03/10 00:32:24;;;;;;;15.57;11.00;;;9.50;74.40;;;;;;5094839;28;20028;-36
2024/03/10 00:34:51;;;;;;;16.35;10.90;;;9.50;74.40;;;;;;5094410;28;20040;-35
2024/03/10 00:37:17;;;;;;;15.55;10.13;;;9.50;74.60;;;;;;5094775;28;20039;-35
2024/03/10 00:39:42;;;;;;;14.27;10.55;;;9.50;74.60;;;;;;5094687;28;20493;-36
2024/03/10 00:42:08;;;;;;;15.70;10.32;;;9.40;74.40;;;;;;5094634;28;20060;-35
2024/03/10 00:44:33;;;;;;;15.15;10.00;;;9.50;74.40;;;;;;5094508;28;20058;-37
2024/03/10 00:46:59;;;;;;;15.07;10.38;;;9.50;74.50;;;;;;5094567;28;20031;-36
2024/03/10 00:49:25;;;;;;;14.57;10.05;;;9.50;74.60;;;;;;5094431;28;20028;-37
2024/03/10 00:51:51;;;;;;;15.23;10.90;;;9.40;74.70;;;;;;5094506;28;20031;-38
2024/03/10 00:54:17;;;;;;;15.27;10.63;;;9.50;74.80;;;;;;5094655;28;20051;-36
2024/03/10 00:56:43;;;;;;;13.18;9.70;;;9.40;74.80;;;;;;5094259;28;20028;-36
2024/03/10 00:59:09;;;;;;;15.10;10.07;;;9.50;74.80;;;;;;5094538;28;20028;-38
2024/03/10 01:01:34;;;;;;;17.42;11.18;;;9.50;74.90;;;;;;5094425;28;20043;-37
2024/03/10 01:04:00;;;;;;;15.18;10.40;;;9.50;74.80;;;;;;5092908;28;20052;-37
2024/03/10 01:06:26;;;;;;;15.00;10.85;;;9.40;74.80;;;;;;5094133;28;20020;-37
2024/03/10 01:08:51;;;;;;;16.70;11.00;;;9.50;74.80;;;;;;5094023;28;20074;-37
2024/03/10 01:11:17;;;;;;;14.77;10.38;;;9.40;74.60;;;;;;5093972;28;20056;-34
2024/03/10 01:13:46;;;;;;;16.90;10.60;;;9.40;74.60;;;;;;5093873;28;20034;-36
2024/03/10 01:16:12;;;;;;;16.30;10.73;;;9.40;74.60;;;;;;5094027;28;20030;-38
2024/03/10 01:18:38;;;;;;;16.83;10.52;;;9.40;74.60;;;;;;5094284;28;20487;-37
2024/03/10 01:21:04;;;;;;;14.63;10.10;;;9.40;74.60;;;;;;5093876;28;20016;-37
2024/03/10 01:23:30;;;;;;;16.38;11.00;;;9.40;74.60;;;;;;5093760;28;20055;-36
2024/03/10 01:25:55;;;;;;;17.17;11.35;;;9.40;74.50;;;;;;5093727;28;20059;-35
2024/03/10 01:28:21;;;;;;;15.60;11.77;;;9.40;74.50;;;;;;5093432;28;20494;-38
2024/03/10 01:30:47;;;;;;;18.08;12.63;;;9.40;74.50;;;;;;5093567;28;20024;-37
2024/03/10 01:33:12;;;;;;;17.17;11.07;;;9.30;74.30;;;;;;5093944;28;20048;-37
2024/03/10 01:35:42;;;;;;;15.65;10.85;;;9.30;74.50;;;;;;5093288;28;20051;-36
2024/03/10 01:38:07;;;;;;;16.08;11.60;;;9.30;74.60;;;;;;5093403;28;20020;-37
2024/03/10 01:40:33;;;;;;;16.67;11.00;;;9.30;74.50;;;;;;5093943;28;20031;-36
2024/03/10 01:42:59;;;;;;;17.52;11.38;;;9.30;74.60;;;;;;5093335;28;20028;-36
2024/03/10 01:45:24;;;;;;;16.58;11.20;;;9.30;74.60;;;;;;5093497;28;20082;-38
2024/03/10 01:47:51;;;;;;;18.70;12.48;;;9.20;74.60;;;;;;5093604;28;20157;-38
2024/03/10 01:50:17;;;;;;;18.45;12.63;;;9.20;75.20;;;;;;5093584;28;20111;-37
2024/03/10 01:52:47;;;;;;;19.77;12.40;;;9.20;74.60;;;;;;5093292;28;20027;-37
2024/03/10 01:55:15;;;;;;;18.67;11.95;;;9.20;74.70;;;;;;5093292;28;20035;-36
2024/03/10 01:57:42;;;;;;;16.02;10.95;;;9.20;74.70;;;;;;5093461;28;20467;-36
2024/03/10 02:00:10;;;;;;;18.90;10.80;;;9.20;74.70;;;;;;5093158;28;20031;-36
2024/03/10 02:02:36;;;;;;;16.92;11.52;;;9.10;74.70;;;;;;5092768;28;20036;-37
2024/03/10 02:05:02;;;;;;;17.10;11.05;;;9.20;74.80;;;;;;5093026;28;20028;-37
2024/03/10 02:07:28;;;;;;;14.43;10.15;;;9.20;74.80;;;;;;5092891;28;20077;-36
2024/03/10 02:09:54;;;;;;;14.98;10.95;;;9.20;74.80;;;;;;5093106;28;20034;-37
2024/03/10 02:12:20;;;;;;;18.30;10.48;;;9.20;74.80;;;;;;5092873;28;20376;-37
2024/03/10 02:15:02;;;;;;;16.55;10.82;;;9.20;75.00;;;;;;5092649;28;20081;-37
2024/03/10 02:17:29;;;;;;;15.82;10.10;;;9.20;75.20;;;;;;5092688;28;20213;-37
2024/03/10 02:19:57;;;;;;;16.17;10.50;;;9.20;75.30;;;;;;5092786;28;20032;-33
2024/03/10 02:22:28;;;;;;;15.32;10.60;;;9.20;75.50;;;;;;5092808;28;20546;-38
2024/03/10 02:24:57;;;;;;;16.67;11.35;;;9.20;75.60;;;;;;5092724;28;20176;-37
2024/03/10 02:27:24;;;;;;;15.63;10.88;;;9.20;75.40;;;;;;5092640;28;20070;-38
2024/03/10 02:48:59;;;;;;;17.85;12.48;;;9.00;75.40;;;;;;5091968;28;20557;-37
2024/03/10 02:51:26;;;;;;;17.52;12.48;;;9.00;75.40;;;;;;5092128;28;20024;-36
2024/03/10 02:53:52;;;;;;;18.77;11.65;;;9.00;76.10;;;;;;5092327;28;20024;-38
2024/03/10 02:56:24;;;;;;;17.73;11.65;;;9.00;76.10;;;;;;5092016;28;20058;-37
2024/03/10 02:58:49;;;;;;;19.25;12.23;;;9.00;75.60;;;;;;5091961;28;20032;-38
2024/03/10 03:01:18;;;;;;;18.05;11.43;;;9.00;75.50;;;;;;5091909;28;20027;-37
2024/03/10 03:03:44;;;;;;;17.35;11.48;;;9.00;75.70;;;;;;5091969;28;20020;-36
2024/03/10 03:06:13;;;;;;;19.52;12.13;;;8.90;75.80;;;;;;5091847;28;20028;-37
2024/03/10 03:08:39;;;;;;;17.33;11.68;;;8.90;75.70;;;;;;5091683;28;20036;-37
2024/03/10 03:11:05;;;;;;;17.05;12.10;;;8.90;75.80;;;;;;5091856;28;20028;-35
2024/03/10 03:13:30;;;;;;;17.08;11.48;;;8.90;75.90;;;;;;5091608;28;20035;-36
2024/03/10 03:15:59;;;;;;;18.23;12.20;;;8.90;76.00;;;;;;5091723;28;20047;-36
2024/03/10 03:18:25;;;;;;;18.10;11.70;;;8.90;75.80;;;;;;5091604;28;20016;-37
2024/03/10 03:20:50;;;;;;;18.42;12.57;;;8.90;75.80;;;;;;5091912;28;20057;-37
2024/03/10 03:23:16;;;;;;;17.77;12.10;;;8.90;75.80;;;;;;5091659;28;20070;-35
2024/03/10 03:25:42;;;;;;;18.35;12.63;;;8.90;75.70;;;;;;5091511;28;20024;-37
2024/03/10 03:28:07;;;;;;;18.95;12.63;;;8.90;75.60;;;;;;5091597;28;20503;-37
2024/03/10 03:30:33;;;;;;;15.48;11.27;;;8.90;75.60;;;;;;5091542;28;20028;-36
2024/03/10 03:32:59;;;;;;;16.38;11.50;;;8.90;76.40;;;;;;5090000;28;20097;-37
2024/03/10 03:35:24;;;;;;;20.48;12.73;;;8.90;76.00;;;;;;5091372;28;20048;-37
2024/03/10 03:37:50;;;;;;;17.48;12.30;;;8.80;75.80;;;;;;5091271;28;20119;-38
2024/03/10 03:40:19;;;;;;;17.38;11.70;;;8.80;75.80;;;;;;5091517;28;20036;-38
2024/03/10 03:42:44;;;;;;;18.50;11.85;;;8.80;76.20;;;;;;5091292;28;20103;-36
2024/03/10 03:45:10;;;;;;;17.45;11.57;;;8.80;76.70;;;;;;5091307;28;20131;-36
2024/03/10 03:47:36;;;;;;;17.27;11.93;;;8.80;76.70;;;;;;5091034;28;20054;-36
2024/03/10 03:50:03;;;;;;;18.27;12.02;;;8.80;76.80;;;;;;5091498;28;20028;-36
2024/03/10 03:52:28;;;;;;;16.75;11.65;;;8.80;76.70;;;;;;5093275;28;20035;-36
2024/03/10 03:54:54;;;;;;;18.42;12.27;;;8.80;76.50;;;;;;5095449;28;20392;-36
2024/03/10 03:57:22;;;;;;;17.52;11.73;;;8.80;76.40;;;;;;5095610;28;20110;-37
2024/03/10 03:59:48;;;;;;;16.23;11.55;;;8.80;76.30;;;;;;5095251;28;20028;-36
2024/03/10 04:02:15;;;;;;;17.70;12.20;;;8.80;76.30;;;;;;5095094;28;20121;-38
2024/03/10 04:04:41;;;;;;;17.90;12.27;;;8.80;76.20;;;;;;5095221;28;20034;-38
2024/03/10 04:07:06;;;;;;;18.85;12.05;;;8.80;76.10;;;;;;5095247;28;20027;-36
2024/03/10 04:09:32;;;;;;;16.50;11.93;;;8.70;76.30;;;;;;5095201;28;20476;-37
2024/03/10 04:11:58;;;;;;;17.63;12.20;;;8.70;76.40;;;;;;5095203;28;20035;-36
2024/03/10 04:14:24;;;;;;;17.70;11.82;;;8.70;76.40;;;;;;5095203;28;20028;-38
2024/03/10 04:16:50;;;;;;;18.42;12.05;;;8.70;76.70;;;;;;5094885;28;20055;-35
2024/03/10 04:19:16;;;;;;;16.75;12.02;;;8.60;76.40;;;;;;5094078;28;20281;-36
2024/03/10 04:21:42;;;;;;;17.77;12.35;;;8.60;76.50;;;;;;5095010;28;20399;-37
2024/03/10 04:24:10;;;;;;;17.58;11.88;;;8.50;76.60;;;;;;5094920;28;20494;-37
2024/03/10 04:26:40;;;;;;;19.17;13.10;;;8.50;76.60;;;;;;5093685;28;20024;-39
2024/03/10 04:29:06;;;;;;;19.45;13.00;;;8.40;76.60;;;;;;5095147;28;20074;-36
2024/03/10 04:31:35;;;;;;;18.55;11.35;;;8.40;76.70;;;;;;5094848;28;20027;-37
2024/03/10 04:34:00;;;;;;;17.85;11.73;;;8.30;76.90;;;;;;5093264;28;20032;-37
2024/03/10 04:36:28;;;;;;;17.30;11.40;;;8.30;77.10;;;;;;5093504;28;20420;-36
2024/03/10 04:38:55;;;;;;;16.95;11.80;;;8.30;77.10;;;;;;5094467;28;20025;-37
2024/03/10 04:41:21;;;;;;;18.23;11.90;;;8.30;77.20;;;;;;5094643;28;20028;-37
2024/03/10 04:43:47;;;;;;;18.60;11.82;;;8.20;77.00;;;;;;5094639;28;20031;-36
2024/03/10 04:46:12;;;;;;;18.85;13.05;;;8.20;77.10;;;;;;5094381;28;20028;-37
2024/03/10 04:48:38;;;;;;;19.63;12.85;;;8.20;77.10;;;;;;5094428;28;20396;-36
2024/03/10 04:51:04;;;;;;;18.65;11.70;;;8.20;76.90;;;;;;5094446;28;20031;-37
2024/03/10 04:53:29;;;;;;;17.42;11.90;;;8.10;77.20;;;;;;5094861;28;20056;-38
2024/03/10 04:55:55;;;;;;;18.33;12.82;;;8.20;77.10;;;;;;5094548;28;20072;-36
2024/03/10 04:58:22;;;;;;;17.85;12.45;;;8.10;77.50;;;;;;5094443;28;20387;-36
2024/03/10 05:00:48;;;;;;;18.25;12.25;;;8.10;77.40;;;;;;5094553;28;20063;-38
2024/03/10 05:03:15;;;;;;;18.67;12.32;;;8.10;77.60;;;;;;5092223;28;20112;-38
2024/03/10 05:05:41;;;;;;;17.08;11.95;;;8.10;77.40;;;;;;5094339;28;20028;-38
2024/03/10 05:08:08;;;;;;;17.98;11.80;;;8.10;77.60;;;;;;5094741;28;20032;-36
2024/03/10 05:10:34;;;;;;;19.38;13.38;;;8.10;77.70;;;;;;5093228;28;20024;-38
2024/03/10 05:13:00;;;;;;;17.85;12.25;;;8.10;77.50;;;;;;5094267;28;20068;-36
2024/03/10 05:15:26;;;;;;;20.38;13.50;;;8.10;77.70;;;;;;5093964;28;20028;-36
2024/03/10 05:17:52;;;;;;;19.85;12.88;;;8.10;77.60;;;;;;5094260;28;20078;-38
2024/03/10 05:20:21;;;;;;;20.38;12.27;;;8.10;77.50;;;;;;5093999;28;20028;-36
2024/03/10 05:22:47;;;;;;;18.30;12.15;;;8.00;77.30;;;;;;5093741;28;20024;-36
2024/03/10 05:25:13;;;;;;;18.90;12.20;;;8.00;77.40;;;;;;5094174;28;20024;-36
2024/03/10 05:27:41;;;;;;;19.38;11.88;;;8.10;77.50;;;;;;5093936;28;20057;-36
2024/03/10 05:30:07;;;;;;;19.75;12.50;;;8.00;77.60;;;;;;5094040;28;20316;-39
2024/03/10 05:32:33;;;;;;;18.88;12.63;;;8.00;77.50;;;;;;5093960;28;20024;-36
2024/03/10 05:34:58;;;;;;;18.35;12.10;;;8.10;77.50;;;;;;5093511;28;20079;-37
2024/03/10 05:37:24;;;;;;;18.05;12.07;;;8.00;77.40;;;;;;5093288;28;20024;-37
2024/03/10 05:39:50;;;;;;;18.95;12.07;;;8.00;77.80;;;;;;5093365;28;20058;-35
2024/03/10 05:42:16;;;;;;;18.15;12.48;;;8.00;77.80;;;;;;5093597;28;20028;-36
2024/03/10 05:44:42;;;;;;;19.27;13.02;;;8.00;77.70;;;;;;5093589;28;20024;-37
2024/03/10 05:47:08;;;;;;;20.23;13.00;;;8.00;77.50;;;;;;5093317;28;20028;-35
2024/03/10 05:49:34;;;;;;;17.70;12.00;;;8.00;77.60;;;;;;5093189;28;20063;-37
2024/03/10 05:52:00;;;;;;;20.00;13.15;;;8.00;77.80;;;;;;5093283;28;20369;-38
2024/03/10 05:54:26;;;;;;;20.30;13.70;;;7.90;77.50;;;;;;5093630;28;20028;-34
2024/03/10 05:56:51;;;;;;;19.45;11.93;;;7.90;77.50;;;;;;5093120;28;20074;-36
2024/03/10 05:59:17;;;;;;;18.90;12.07;;;7.90;77.50;;;;;;5093143;28;20017;-36
2024/03/10 06:01:45;;;;;;;17.17;11.50;;;7.90;77.70;;;;;;5092934;28;20073;-35
2024/03/10 06:04:13;;;;;;;18.85;11.85;;;7.90;78.20;;;;;;5093388;28;20020;-37
2024/03/10 06:06:39;;;;;;;18.58;12.38;;;7.90;78.20;;;;;;5093022;28;20044;-36
2024/03/10 06:09:10;;;;;;;20.27;13.43;;;7.90;77.80;;;;;;5093018;28;20086;-38
2024/03/10 06:11:36;;;;;;;22.20;13.02;;;7.90;77.60;;;;;;5092880;28;20028;-37
2024/03/10 06:14:01;;;;;;;21.70;13.25;;;7.90;77.60;;;;;;5092873;28;20032;-46
2024/03/10 06:16:27;;;;;;;19.50;12.05;;;7.90;78.20;;;;;;5092546;28;20396;-32
2024/03/10 06:26:53;;;;;;;17.58;11.13;;;7.80;78.70;;;;;;5092549;28;20026;-35
2024/03/10 06:29:19;;;;;;;20.20;12.80;;;7.80;78.90;;;;;;5092887;28;20455;-36
2024/03/10 06:31:45;;;;;;;19.90;11.68;;;7.80;78.60;;;;;;5092973;28;20027;-37
2024/03/10 06:34:11;;;;;;;18.48;11.43;;;7.80;79.10;;;;;;5092505;28;20020;-36
2024/03/10 06:36:37;;;;;;;17.90;11.07;;;7.90;78.80;;;;;;5092442;28;20133;-36
2024/03/10 06:39:05;;;;;;;16.52;11.02;;;7.90;79.00;;;;;;5091014;28;20063;-36
2024/03/10 06:41:33;;;;;;;17.38;10.90;;;7.90;79.10;;;;;;5092239;28;20136;-37
2024/03/10 06:43:59;;;;;;;19.98;12.30;;;7.90;79.10;;;;;;5090993;28;20445;-37
2024/03/10 06:46:25;;;;;;;17.50;11.23;;;8.00;79.10;;;;;;5092653;28;20020;-36
2024/03/10 06:48:52;;;;;;;20.75;12.43;;;8.00;78.90;;;;;;5092426;28;20031;-37
2024/03/10 06:51:19;;;;;;;19.77;12.13;;;8.00;78.80;;;;;;5090762;28;20468;-34
2024/03/10 06:53:45;;;;;;;20.40;12.38;;;8.00;78.70;;;;;;5092215;28;20031;-37
2024/03/10 06:56:11;;;;;;;17.35;11.38;;;8.00;78.80;;;;;;5092276;28;20020;-35
2024/03/10 06:58:37;;;;;;;17.90;11.30;;;8.00;78.90;;;;;;5092297;28;20375;-37
2024/03/10 07:01:04;;;;;;;16.45;11.02;;;8.10;79.30;;;;;;5092479;28;20028;-37
2024/03/10 07:03:30;;;;;;;17.98;11.30;;;8.10;79.30;;;;;;5092052;28;20352;-37
2024/03/10 07:06:00;;;;;;;15.38;10.32;;;8.10;79.40;;;;;;5092279;28;20213;-37
2024/03/10 07:08:26;;;;;;;15.85;10.88;;;8.10;79.40;;;;;;5091815;28;20020;-36
2024/03/10 07:10:52;;;;;;;17.45;11.10;;;8.10;79.40;;;;;;5091927;28;20107;-36
2024/03/10 07:13:20;;;;;;;17.35;10.73;;;8.20;79.30;;;;;;5091766;28;20445;-34
2024/03/10 07:15:49;;;;;;;20.15;12.73;;;8.20;79.70;;;;;;5091738;28;20074;-36
2024/03/10 07:18:14;;;;;;;19.30;12.40;;;8.20;79.30;;;;;;5092048;28;20547;-37
2024/03/10 07:20:40;;;;;;;18.08;11.82;;;8.20;78.60;;;;;;5092083;28;20020;-37
2024/03/10 07:23:06;;;;;;;19.15;11.95;;;8.20;78.50;;;;;;5092032;28;20043;-37
2024/03/10 07:25:32;;;;;;;14.73;10.88;;;8.20;78.40;;;;;;5091623;28;20028;-37
2024/03/10 07:27:57;;;;;;;15.75;10.68;;;8.20;78.50;;;;;;5091123;28;20066;-36
2024/03/10 07:30:24;;;;;;;16.08;10.13;;;8.30;78.50;;;;;;5091533;28;20028;-37
2024/03/10 07:32:49;;;;;;;16.98;10.55;;;8.30;78.70;;;;;;5091854;28;20492;-36
2024/03/10 07:35:16;;;;;;;15.57;10.10;;;8.40;78.90;;;;;;5091475;28;20048;-38
2024/03/10 07:37:42;;;;;;;15.73;10.07;;;8.40;78.90;;;;;;5091504;28;20118;-37
2024/03/10 07:40:19;;;;;;;17.17;10.63;;;8.50;78.80;;;;;;5091859;28;20065;-36
2024/03/10 07:42:46;;;;;;;16.52;10.35;;;8.50;78.70;;;;;;5091759;28;20028;-37
2024/03/10 07:45:11;;;;;;;13.73;9.82;;;8.60;78.70;;;;;;5091372;28;20020;-37
2024/03/10 07:47:42;;;;;;;17.15;10.57;;;8.60;78.90;;;;;;5091331;28;20039;-38
2024/03/10 07:50:10;;;;;;;15.23;10.23;;;8.60;78.70;;;;;;5090220;28;20016;-36
2024/03/10 07:52:36;;;;;;;16.05;10.80;;;8.70;79.10;;;;;;5091610;28;20028;-40
2024/03/10 07:55:04;;;;;;;15.40;9.90;;;8.80;78.90;;;;;;5091538;28;20039;-37
2024/03/10 07:57:32;;;;;;;14.75;10.00;;;8.80;78.60;;;;;;5091352;28;20039;-35
2024/03/10 08:00:05;;;;;;;16.23;10.93;;;8.90;78.40;;;;;;5091322;28;20060;-37
2024/03/10 08:02:33;;;;;;;14.93;10.48;;;9.00;78.00;;;;;;5091197;28;20103;-36
2024/03/10 08:04:59;;;;;;;15.18;10.07;;;9.10;78.20;;;;;;5091249;28;20024;-36
2024/03/10 08:07:25;;;;;;;13.02;9.07;;;9.20;78.40;;;;;;5091316;28;20480;-37
2024/03/10 08:09:50;;;;;;;13.48;9.20;;;9.30;78.40;;;;;;5091407;28;20024;-37
2024/03/10 08:12:16;;;;;;;11.25;7.75;;;9.40;79.20;;;;;;5091153;28;20027;-36
2024/03/10 08:14:43;;;;;;;14.60;9.45;;;9.40;79.30;;;;;;5072985;28;20024;-36
2024/03/10 08:17:09;;;;;;;14.07;9.50;;;9.50;80.40;;;;;;5091134;28;20031;-37
2024/03/10 08:19:35;;;;;;;14.02;10.40;;;9.60;80.20;;;;;;5090968;28;20028;-38
2024/03/10 08:22:01;;;;;;;16.60;9.63;;;9.60;79.80;;;;;;5091225;28;20020;-37
2024/03/10 08:24:26;;;;;;;15.38;10.25;;;9.70;79.50;;;;;;5091363;28;20644;-34
2024/03/10 08:26:53;;;;;;;14.23;9.70;;;9.80;79.30;;;;;;5090950;28;20020;-37
2024/03/10 08:29:19;;;;;;;15.45;10.45;;;9.80;79.10;;;;;;5091317;28;20031;-34
2024/03/10 08:31:45;;;;;;;15.88;10.25;;;9.90;78.60;;;;;;5091375;28;20024;-39
2024/03/10 08:34:11;;;;;;;15.57;11.07;;;9.90;78.30;;;;;;5090958;28;20024;-43
2024/03/10 08:36:39;;;;;;;15.27;10.70;;;9.90;77.40;;;;;;5091051;28;20031;-39
2024/03/10 08:39:08;;;;;;;15.23;10.38;;;9.80;77.60;;;;;;5093478;28;20092;-38
2024/03/10 08:41:37;;;;;;;16.30;11.18;;;9.90;77.70;;;;;;5094924;28;20046;-38
2024/03/10 08:44:03;;;;;;;15.43;10.63;;;9.90;77.70;;;;;;5095100;28;20020;-39
2024/03/10 08:46:30;;;;;;;16.33;10.15;;;9.80;77.70;;;;;;5094472;28;20035;-36
2024/03/10 08:48:56;;;;;;;15.52;10.85;;;9.80;77.80;;;;;;5094752;28;20024;-37
2024/03/10 08:51:27;;;;;;;15.10;9.95;;;9.90;77.70;;;;;;5094598;28;20027;-36
2024/03/10 08:53:53;;;;;;;16.83;11.60;;;9.90;77.60;;;;;;5094732;28;20024;-37
2024/03/10 08:56:19;;;;;;;15.27;9.90;;;9.90;77.30;;;;;;5094327;28;20074;-38
2024/03/10 08:58:44;;;;;;;15.38;9.70;;;9.90;77.60;;;;;;5094274;28;20024;-38
2024/03/10 09:01:11;;;;;;;16.73;10.88;;;10.00;77.70;;;;;;5094382;28;20076;-37
2024/03/10 09:03:38;;;;;;;15.43;10.43;;;10.10;78.30;;;;;;5094609;28;20468;-38
2024/03/10 09:06:04;;;;;;;14.50;10.10;;;10.10;77.50;;;;;;5094228;28;20024;-39
2024/03/10 09:08:30;;;;;;;13.43;9.65;;;10.20;77.30;;;;;;5094038;28;20024;-44
2024/03/10 09:10:57;;;;;;;16.90;10.00;;;10.30;78.00;;;;;;5094617;28;20479;-40
2024/03/10 09:13:23;;;;;;;14.63;9.98;;;10.40;78.70;;;;;;5094474;28;20020;-38
2024/03/10 09:15:48;;;;;;;15.60;10.35;;;10.40;78.00;;;;;;5093871;28;20020;-37
2024/03/10 09:18:14;;;;;;;14.38;10.48;;;10.50;77.40;;;;;;5093892;28;20047;-37
2024/03/10 09:20:42;;;;;;;14.38;10.30;;;10.50;77.40;;;;;;5093995;28;20070;-37
2024/03/10 09:23:07;;;;;;;16.42;10.60;;;10.60;77.10;;;;;;5094069;28;20384;-36
2024/03/10 09:25:34;;;;;;;14.40;9.95;;;10.60;77.00;;;;;;5093875;28;20023;-37
2024/03/10 09:28:00;;;;;;;14.18;10.35;;;10.70;77.00;;;;;;5093903;28;20061;-36
2024/03/10 09:30:30;;;;;;;14.32;10.02;;;10.70;76.90;;;;;;5093686;28;20055;-38
2024/03/10 09:32:56;;;;;;;11.95;9.13;;;10.70;77.10;;;;;;5094008;28;20480;-37
2024/03/10 09:35:28;;;;;;;14.43;10.18;;;10.80;77.00;;;;;;5093482;28;20044;-36
2024/03/10 09:37:58;;;;;;;15.13;10.52;;;10.90;76.80;;;;;;5093528;28;20492;-38
2024/03/10 09:40:30;;;;;;;13.98;10.00;;;10.90;77.20;;;;;;5092365;28;20081;-37
2024/03/10 09:43:04;;;;;;;15.63;10.77;;;11.00;76.90;;;;;;5094145;28;20027;-38
2024/03/10 09:45:47;;;;;;;14.77;10.60;;;11.10;76.50;;;;;;5093303;28;20039;-37
2024/03/10 09:48:14;;;;;;;13.90;9.67;;;11.20;75.70;;;;;;5093638;28;20024;-37
2024/03/10 09:50:41;;;;;;;12.57;9.50;;;11.30;76.10;;;;;;5093103;28;20028;-38
2024/03/10 09:53:08;;;;;;;14.88;10.02;;;11.40;76.60;;;;;;5093418;28;20070;-37
2024/03/10 09:55:34;;;;;;;14.93;9.43;;;11.40;76.30;;;;;;5091720;28;20073;-36
2024/03/10 09:58:12;;;;;;;14.70;10.50;;;11.40;76.60;;;;;;5093117;28;20024;-37
2024/03/10 10:00:39;;;;;;;13.88;9.70;;;11.50;76.80;;;;;;5093556;28;20077;-38
2024/03/10 10:03:07;;;;;;;15.43;10.50;;;11.50;76.70;;;;;;5093398;28;20524;-37
2024/03/10 10:05:42;;;;;;;17.85;10.90;;;11.50;76.50;;;;;;5092954;28;20024;-37
2024/03/10 10:08:12;;;;;;;13.98;9.50;;;11.60;76.30;;;;;;5092823;28;20053;-37
2024/03/10 10:10:42;;;;;;;14.43;9.90;;;11.60;76.60;;;;;;5093158;28;20036;-38
2024/03/10 10:13:08;;;;;;;15.80;10.48;;;11.70;77.00;;;;;;5093180;28;20638;-38
2024/03/10 10:15:34;;;;;;;17.30;11.57;;;11.70;76.80;;;;;;5092837;28;20024;-38
2024/03/10 10:18:01;;;;;;;16.23;11.38;;;11.70;76.40;;;;;;5092714;28;20024;-35
2024/03/10 10:20:28;;;;;;;14.52;11.55;;;11.80;75.90;;;;;;5093315;28;20016;-38
2024/03/10 10:22:55;;;;;;;15.35;9.93;;;11.90;75.90;;;;;;5092749;28;20385;-38
2024/03/10 10:25:22;;;;;;;15.68;11.20;;;11.90;76.20;;;;;;5092572;28;20024;-37
2024/03/10 10:27:52;;;;;;;17.80;12.82;;;11.90;76.10;;;;;;5092917;28;20477;-38
2024/03/10 10:30:23;;;;;;;19.40;12.88;;;11.90;74.00;;;;;;5092520;28;20236;-37
2024/03/10 10:33:14;;;;;;;21.42;13.35;;;11.90;74.20;;;;;;5092648;28;20028;-46
2024/03/10 10:35:45;;;;;;;16.73;12.38;;;11.90;74.10;;;;;;5090964;28;20581;-36
2024/03/10 10:38:12;;;;;;;19.25;13.25;;;11.90;73.50;;;;;;5092417;28;20024;-37
2024/03/10 10:40:47;;;;;;;16.30;12.32;;;12.00;72.90;;;;;;5091328;28;20474;-37
2024/03/10 10:43:13;;;;;;;17.13;12.68;;;12.00;72.80;;;;;;5092383;28;20107;-35
2024/03/10 10:45:39;;;;;;;17.88;13.23;;;12.10;72.10;;;;;;5092271;28;20513;-36
2024/03/10 10:48:08;;;;;;;16.15;12.02;;;12.10;71.40;;;;;;5091245;28;20078;-38
2024/03/10 10:50:34;;;;;;;21.92;13.20;;;12.20;72.00;;;;;;5092578;28;20027;-37
2024/03/10 10:53:05;;;;;;;16.00;11.18;;;12.20;71.30;;;;;;5092300;28;20016;-37
2024/03/10 10:55:32;;;;;;;16.70;11.98;;;12.20;71.50;;;;;;5092097;28;20024;-35
2024/03/10 10:57:59;;;;;;;17.05;12.32;;;12.30;71.60;;;;;;5092042;28;20072;-37
2024/03/10 11:00:28;;;;;;;16.08;11.65;;;12.30;71.50;;;;;;5090889;28;20031;-38
2024/03/10 11:03:13;;;;;;;15.93;11.23;;;12.30;71.30;;;;;;5091430;28;20456;-37
2024/03/10 11:05:40;;;;;;;15.15;10.73;;;12.40;71.40;;;;;;5091008;28;20040;-38
2024/03/10 11:08:07;;;;;;;14.80;11.00;;;12.40;72.50;;;;;;5092720;28;20020;-37
2024/03/10 11:10:49;;;;;;;14.85;10.68;;;12.40;72.40;;;;;;5091863;28;20494;-37
2024/03/10 11:13:17;;;;;;;14.60;10.55;;;12.40;72.70;;;;;;5092033;28;20024;-38
2024/03/10 11:15:44;;;;;;;15.43;11.48;;;12.50;73.40;;;;;;5091986;28;20043;-36
2024/03/10 11:18:39;;;;;;;14.40;10.75;;;12.50;73.50;;;;;;5091863;28;20024;-37
2024/03/10 11:21:13;;;;;;;14.25;10.32;;;12.60;73.80;;;;;;5090354;28;20036;-38
2024/03/10 11:23:46;;;;;;;14.48;11.07;;;12.60;73.70;;;;;;5091966;28;20238;-37
2024/03/10 11:26:15;;;;;;;;;;;12.60;73.70;;;;;;5092313;28;20528;-37
2024/03/10 11:28:53;;;;;;;16.33;10.27;;;12.80;73.90;;;;;;5091806;28;19915;-37
2024/03/10 11:31:27;;;;;;;13.52;10.23;;;12.90;73.80;;;;;;5091975;28;20031;-37
2024/03/10 11:33:55;;;;;;;14.43;11.02;;;13.00;73.40;;;;;;5091487;28;20024;-37
2024/03/10 11:36:22;;;;;;;15.13;11.73;;;13.10;73.10;;;;;;5090934;28;20093;-37
2024/03/10 11:38:51;;;;;;;16.42;12.13;;;13.20;72.90;;;;;;5091388;28;20101;-40
2024/03/10 11:41:22;;;;;;;14.35;11.27;;;13.30;72.20;;;;;;5091313;28;20059;-34
2024/03/10 11:43:48;;;;;;;16.00;11.23;;;13.40;71.70;;;;;;5091402;28;20449;-37
2024/03/10 11:46:19;;;;;;;16.58;12.00;;;13.50;71.20;;;;;;5091526;28;20023;-37
2024/03/10 11:48:52;;;;;;;17.20;12.75;;;13.60;70.40;;;;;;5091553;28;20378;-38
2024/03/10 11:51:18;;;;;;;15.20;12.13;;;13.70;70.10;;;;;;5091629;28;20557;-35
2024/03/10 11:53:44;;;;;;;15.57;11.75;;;13.70;69.90;;;;;;5091371;28;20043;-38
2024/03/10 11:56:10;;;;;;;14.32;11.10;;;13.70;69.70;;;;;;5091434;28;20063;-36
2024/03/10 11:58:36;;;;;;;16.05;11.25;;;13.70;69.50;;;;;;5090112;28;20020;-38
2024/03/10 12:01:05;;;;;;;15.38;11.40;;;13.70;69.50;;;;;;5091258;28;20032;-37
2024/03/10 12:03:37;;;;;;;17.10;11.60;;;13.70;69.30;;;;;;5091234;28;20069;-38
2024/03/10 12:06:05;;;;;;;17.50;12.20;;;13.70;69.10;;;;;;5089901;28;20036;-36
2024/03/10 12:08:33;;;;;;;17.60;12.63;;;13.70;68.90;;;;;;5091313;28;20031;-34
2024/03/10 12:11:00;;;;;;;19.10;12.93;;;13.70;68.90;;;;;;5091593;28;20028;-36
2024/03/10 12:13:26;;;;;;;16.33;11.95;;;13.70;68.70;;;;;;5092926;28;20024;-37
2024/03/10 12:16:07;;;;;;;16.17;11.52;;;13.80;68.70;;;;;;5095448;28;20390;-37
2024/03/10 12:18:35;;;;;;;15.77;11.18;;;13.90;68.70;;;;;;5095398;28;20020;-42
2024/03/10 12:21:01;;;;;;;15.80;10.88;;;14.00;68.90;;;;;;5095357;28;20067;-37
2024/03/10 12:23:36;;;;;;;13.95;10.80;;;14.10;69.00;;;;;;5095486;28;20562;-39
2024/03/10 12:26:10;;;;;;;15.65;11.98;;;14.30;68.70;;;;;;5094971;28;20035;-37
2024/03/10 12:28:39;;;;;;;;;;;14.30;68.70;;;;;;5095598;28;20024;-39
2024/03/10 12:31:09;;;;;;;17.45;13.10;;;14.30;67.70;;;;;;5093687;28;19944;-37
2024/03/10 12:33:37;;;;;;;17.75;13.07;;;14.30;67.00;;;;;;5095291;28;20038;-38
2024/03/10 12:36:04;;;;;;;18.67;14.00;;;14.30;67.30;;;;;;5094972;28;20186;-37
2024/03/10 12:38:30;;;;;;;18.52;12.68;;;14.30;67.00;;;;;;5094751;28;20020;-36
2024/03/10 12:40:57;;;;;;;17.65;13.02;;;14.30;67.60;;;;;;5095121;28;20016;-37
2024/03/10 12:43:23;;;;;;;12.85;10.00;;;14.30;68.50;;;;;;5094934;28;20045;-35
2024/03/10 12:45:49;;;;;;;15.57;12.07;;;14.40;68.20;;;;;;5094895;28;20036;-36
2024/03/10 12:48:15;;;;;;;16.48;12.32;;;14.40;68.10;;;;;;5094760;28;20093;-37
2024/03/10 12:50:40;;;;;;;15.90;12.00;;;14.40;68.10;;;;;;5094880;28;20496;-37
2024/03/10 12:53:06;;;;;;;16.05;12.20;;;14.40;67.70;;;;;;5094812;28;20115;-38
2024/03/10 12:55:34;;;;;;;15.80;12.40;;;14.40;68.10;;;;;;5094507;28;20103;-37
2024/03/10 12:58:00;;;;;;;15.90;11.98;;;14.40;68.10;;;;;;5093085;28;20027;-37
2024/03/10 13:02:52;;;;;;;15.60;12.02;;;14.40;68.30;;;;;;5094238;28;20028;-37
2024/03/10 13:05:18;;;;;;;16.55;12.82;;;14.50;68.30;;;;;;5094549;28;20447;-38